Terminal Aerodrome Forecast
Issued by NWS Greer, SC

Home | Current Version | Previous Version | Text Only | Print | Product List | Glossary On
Versions: 1 2 3 4 5 6 7 8 9 10 11 12 13 14 15 16 17 18
000
FTUS42 KGSP 281137
TAFGSP
TAF
KGSP 281137Z 2812/2912 25007KT P6SM VCSH SCT060 BKN120
      TEMPO 2812/2815 6SM SHRA OVC045
     FM281600 24012G20KT P6SM VCTS SCT040CB BKN070
     FM282100 24011KT P6SM BKN050 PROB30 2821/2824 4SM -TSRA
      OVC025CB
     FM290200 24007KT P6SM SCT060 BKN250=

USA.gov is the U.S. government's official web portal to all federal, state and local government web resources and services.